sensor_id;sensor_type;location;lat;lon;timestamp;pressure;altitude;pressure_sealevel;temperature;humidity
55757;BME280;41676;44.610;44.078;2024-03-23T00:57:04;100137.97;;;3.64;100.00
55757;BME280;41676;44.610;44.078;2024-03-23T01:02:05;100127.91;;;3.70;100.00
55757;BME280;41676;44.610;44.078;2024-03-23T01:07:06;100146.88;;;3.73;100.00
55757;BME280;41676;44.610;44.078;2024-03-23T01:12:06;100064.16;;;3.26;100.00
55757;BME280;41676;44.610;44.078;2024-03-23T01:17:07;100143.56;;;3.71;100.00
55757;BME280;41676;44.610;44.078;2024-03-23T01:22:08;100136.03;;;3.66;100.00
55757;BME280;41676;44.610;44.078;2024-03-23T01:27:10;100125.47;;;3.57;100.00
55757;BME280;41676;44.610;44.078;2024-03-23T01:32:11;100085.63;;;3.31;100.00
55757;BME280;41676;44.610;44.078;2024-03-23T01:37:12;100145.72;;;3.66;100.00
55757;BME280;41676;44.610;44.078;2024-03-23T01:42:12;100138.47;;;3.58;100.00
55757;BME280;41676;44.610;44.078;2024-03-23T01:47:13;100140.59;;;3.64;100.00
55757;BME280;41676;44.610;44.078;2024-03-23T01:52:14;100157.94;;;3.77;100.00
55757;BME280;41676;44.610;44.078;2024-03-23T01:57:15;100161.28;;;3.79;100.00
55757;BME280;41676;44.610;44.078;2024-03-23T02:02:16;100161.34;;;3.88;100.00
55757;BME280;41676;44.610;44.078;2024-03-23T02:07:18;100164.41;;;3.94;100.00
55757;BME280;41676;44.610;44.078;2024-03-23T02:12:19;100167.50;;;3.99;100.00
55757;BME280;41676;44.610;44.078;2024-03-23T02:17:20;100171.53;;;4.03;100.00
55757;BME280;41676;44.610;44.078;2024-03-23T02:22:21;100121.88;;;3.79;100.00
55757;BME280;41676;44.610;44.078;2024-03-23T02:27:22;100171.97;;;4.08;100.00
55757;BME280;41676;44.610;44.078;2024-03-23T02:32:23;100112.28;;;3.68;100.00
55757;BME280;41676;44.610;44.078;2024-03-23T02:37:23;100135.53;;;3.73;100.00
55757;BME280;41676;44.610;44.078;2024-03-23T02:42:24;100174.56;;;3.98;100.00
55757;BME280;41676;44.610;44.078;2024-03-23T02:47:25;100163.41;;;3.85;100.00
55757;BME280;41676;44.610;44.078;2024-03-23T02:52:26;100154.63;;;3.75;100.00
55757;BME280;41676;44.610;44.078;2024-03-23T02:57:26;100188.06;;;3.94;100.00
55757;BME280;41676;44.610;44.078;2024-03-23T03:02:27;100207.44;;;3.93;100.00
55757;BME280;41676;44.610;44.078;2024-03-23T03:07:28;100153.22;;;3.71;100.00
55757;BME280;41676;44.610;44.078;2024-03-23T03:12:29;100212.75;;;4.02;100.00
55757;BME280;41676;44.610;44.078;2024-03-23T03:17:30;100202.75;;;3.96;100.00
55757;BME280;41676;44.610;44.078;2024-03-23T03:22:31;100196.66;;;3.96;100.00
55757;BME280;41676;44.610;44.078;2024-03-23T03:27:31;100193.06;;;3.97;100.00
55757;BME280;41676;44.610;44.078;2024-03-23T03:32:33;100225.13;;;4.11;100.00
55757;BME280;41676;44.610;44.078;2024-03-23T03:37:33;100238.25;;;4.11;100.00
55757;BME280;41676;44.610;44.078;2024-03-23T03:42:35;100235.63;;;4.11;100.00
55757;BME280;41676;44.610;44.078;2024-03-23T03:47:35;100244.09;;;4.15;100.00
55757;BME280;41676;44.610;44.078;2024-03-23T03:52:36;100239.22;;;4.10;100.00
55757;BME280;41676;44.610;44.078;2024-03-23T03:57:37;100246.88;;;4.14;100.00
55757;BME280;41676;44.610;44.078;2024-03-23T04:02:38;100255.88;;;4.21;100.00
55757;BME280;41676;44.610;44.078;2024-03-23T04:07:39;100262.63;;;4.14;100.00
55757;BME280;41676;44.610;44.078;2024-03-23T04:12:43;100250.38;;;4.03;100.00
55757;BME280;41676;44.610;44.078;2024-03-23T04:17:45;100271.91;;;4.18;100.00
55757;BME280;41676;44.610;44.078;2024-03-23T04:22:46;100227.53;;;4.03;100.00
55757;BME280;41676;44.610;44.078;2024-03-23T04:27:47;100262.88;;;4.31;100.00
55757;BME280;41676;44.610;44.078;2024-03-23T04:32:47;100272.16;;;4.35;100.00
55757;BME280;41676;44.610;44.078;2024-03-23T04:37:48;100261.66;;;4.35;100.00
55757;BME280;41676;44.610;44.078;2024-03-23T04:42:49;100215.00;;;4.07;100.00
55757;BME280;41676;44.610;44.078;2024-03-23T04:47:50;100277.38;;;4.47;100.00
55757;BME280;41676;44.610;44.078;2024-03-23T04:52:50;100274.50;;;4.60;100.00
55757;BME280;41676;44.610;44.078;2024-03-23T04:57:51;100237.28;;;4.33;100.00
55757;BME280;41676;44.610;44.078;2024-03-23T05:02:52;100198.88;;;4.21;100.00
55757;BME280;41676;44.610;44.078;2024-03-23T05:07:53;100249.75;;;4.62;100.00
55757;BME280;41676;44.610;44.078;2024-03-23T05:12:54;100288.50;;;4.91;100.00
55757;BME280;41676;44.610;44.078;2024-03-23T05:17:55;100289.19;;;4.93;100.00
55757;BME280;41676;44.610;44.078;2024-03-23T05:22:56;100293.91;;;4.99;100.00
55757;BME280;41676;44.610;44.078;2024-03-23T05:27:56;100283.94;;;4.93;100.00
55757;BME280;41676;44.610;44.078;2024-03-23T05:32:57;100297.81;;;4.95;100.00
55757;BME280;41676;44.610;44.078;2024-03-23T05:37:58;100235.94;;;4.70;100.00
55757;BME280;41676;44.610;44.078;2024-03-23T05:42:59;100256.50;;;4.95;100.00
55757;BME280;41676;44.610;44.078;2024-03-23T05:48:00;100291.38;;;5.28;100.00
55757;BME280;41676;44.610;44.078;2024-03-23T05:53:01;100300.03;;;5.49;100.00
55757;BME280;41676;44.610;44.078;2024-03-23T05:58:01;100287.84;;;5.68;100.00
55757;BME280;41676;44.610;44.078;2024-03-23T06:03:02;100297.97;;;5.82;100.00
55757;BME280;41676;44.610;44.078;2024-03-23T06:08:03;100302.41;;;5.91;100.00
55757;BME280;41676;44.610;44.078;2024-03-23T06:13:04;100289.81;;;5.95;100.00
55757;BME280;41676;44.610;44.078;2024-03-23T06:18:05;100263.72;;;6.02;100.00
55757;BME280;41676;44.610;44.078;2024-03-23T06:23:08;100264.56;;;6.02;100.00
55757;BME280;41676;44.610;44.078;2024-03-23T06:28:08;100310.41;;;6.68;100.00
55757;BME280;41676;44.610;44.078;2024-03-23T06:33:09;100305.38;;;6.74;100.00
55757;BME280;41676;44.610;44.078;2024-03-23T06:38:10;100303.63;;;6.93;100.00
55757;BME280;41676;44.610;44.078;2024-03-23T06:43:11;100322.81;;;7.22;100.00
55757;BME280;41676;44.610;44.078;2024-03-23T06:48:11;100305.19;;;7.41;100.00
55757;BME280;41676;44.610;44.078;2024-03-23T06:53:15;100300.44;;;7.44;100.00
55757;BME280;41676;44.610;44.078;2024-03-23T06:58:24;100308.56;;;7.61;100.00
55757;BME280;41676;44.610;44.078;2024-03-23T07:03:25;100279.72;;;7.22;100.00
55757;BME280;41676;44.610;44.078;2024-03-23T07:08:26;100289.41;;;7.03;100.00
55757;BME280;41676;44.610;44.078;2024-03-23T07:13:27;100310.91;;;7.08;100.00
55757;BME280;41676;44.610;44.078;2024-03-23T07:18:28;100314.97;;;7.03;100.00
55757;BME280;41676;44.610;44.078;2024-03-23T07:23:29;100312.84;;;7.16;100.00
55757;BME280;41676;44.610;44.078;2024-03-23T07:28:30;100324.75;;;7.20;100.00
55757;BME280;41676;44.610;44.078;2024-03-23T07:33:35;100266.91;;;6.99;100.00
55757;BME280;41676;44.610;44.078;2024-03-23T07:38:37;100314.00;;;7.31;100.00
55757;BME280;41676;44.610;44.078;2024-03-23T07:43:38;100303.50;;;7.22;100.00
55757;BME280;41676;44.610;44.078;2024-03-23T07:48:39;100250.28;;;6.89;100.00
55757;BME280;41676;44.610;44.078;2024-03-23T07:53:44;100314.00;;;7.31;100.00
55757;BME280;41676;44.610;44.078;2024-03-23T07:58:49;100306.91;;;7.32;100.00
55757;BME280;41676;44.610;44.078;2024-03-23T08:03:50;100312.06;;;7.34;100.00
55757;BME280;41676;44.610;44.078;2024-03-23T08:08:53;100317.41;;;7.42;100.00
55757;BME280;41676;44.610;44.078;2024-03-23T08:14:00;100298.75;;;7.25;100.00
55757;BME280;41676;44.610;44.078;2024-03-23T08:19:01;100255.97;;;6.94;100.00
55757;BME280;41676;44.610;44.078;2024-03-23T08:24:04;100256.97;;;7.11;100.00
55757;BME280;41676;44.610;44.078;2024-03-23T08:29:05;100290.31;;;7.40;100.00
55757;BME280;41676;44.610;44.078;2024-03-23T08:34:06;100275.91;;;7.52;100.00
55757;BME280;41676;44.610;44.078;2024-03-23T08:39:07;100289.28;;;7.68;100.00
55757;BME280;41676;44.610;44.078;2024-03-23T08:44:07;100271.91;;;7.48;100.00
55757;BME280;41676;44.610;44.078;2024-03-23T08:49:08;100297.19;;;7.50;100.00
55757;BME280;41676;44.610;44.078;2024-03-23T08:54:09;100297.28;;;7.59;100.00
55757;BME280;41676;44.610;44.078;2024-03-23T08:59:10;100283.06;;;7.60;100.00
55757;BME280;41676;44.610;44.078;2024-03-23T09:04:10;100285.19;;;7.74;100.00
55757;BME280;41676;44.610;44.078;2024-03-23T09:09:11;100190.72;;;7.22;100.00
55757;BME280;41676;44.610;44.078;2024-03-23T09:14:12;100295.16;;;7.80;100.00
55757;BME280;41676;44.610;44.078;2024-03-23T09:19:13;100257.09;;;7.55;100.00
55757;BME280;41676;44.610;44.078;2024-03-23T09:24:13;100257.72;;;7.49;100.00
55757;BME280;41676;44.610;44.078;2024-03-23T09:29:14;100254.59;;;7.36;100.00
55757;BME280;41676;44.610;44.078;2024-03-23T09:34:15;100282.19;;;7.51;100.00
55757;BME280;41676;44.610;44.078;2024-03-23T09:39:16;100286.78;;;7.49;100.00
55757;BME280;41676;44.610;44.078;2024-03-23T09:44:17;100281.88;;;7.36;100.00
55757;BME280;41676;44.610;44.078;2024-03-23T09:49:18;100281.88;;;7.54;100.00
55757;BME280;41676;44.610;44.078;2024-03-23T09:54:18;100268.59;;;7.64;100.00
55757;BME280;41676;44.610;44.078;2024-03-23T09:59:19;100268.44;;;7.65;100.00
55757;BME280;41676;44.610;44.078;2024-03-23T10:04:55;100270.94;;;7.85;100.00
55757;BME280;41676;44.610;44.078;2024-03-23T10:09:57;100258.25;;;7.70;100.00
55757;BME280;41676;44.610;44.078;2024-03-23T10:14:58;100211.94;;;7.30;100.00
55757;BME280;41676;44.610;44.078;2024-03-23T10:19:59;100254.28;;;7.57;100.00
55757;BME280;41676;44.610;44.078;2024-03-23T10:25:08;100251.81;;;7.55;100.00
55757;BME280;41676;44.610;44.078;2024-03-23T10:30:11;100252.13;;;7.52;100.00
55757;BME280;41676;44.610;44.078;2024-03-23T10:35:19;100243.56;;;7.40;100.00
55757;BME280;41676;44.610;44.078;2024-03-23T10:40:24;100222.75;;;7.37;100.00
55757;BME280;41676;44.610;44.078;2024-03-23T10:45:25;100243.66;;;7.66;100.00
55757;BME280;41676;44.610;44.078;2024-03-23T10:50:26;100217.84;;;7.60;100.00
55757;BME280;41676;44.610;44.078;2024-03-23T10:55:28;100228.13;;;7.63;100.00
55757;BME280;41676;44.610;44.078;2024-03-23T11:00:30;100211.03;;;7.40;100.00
55757;BME280;41676;44.610;44.078;2024-03-23T11:05:31;100244.28;;;7.60;100.00
55757;BME280;41676;44.610;44.078;2024-03-23T11:10:32;100247.28;;;7.65;100.00
55757;BME280;41676;44.610;44.078;2024-03-23T11:15:36;100240.03;;;7.67;100.00
55757;BME280;41676;44.610;44.078;2024-03-23T11:20:37;100237.47;;;7.58;100.00
55757;BME280;41676;44.610;44.078;2024-03-23T11:25:38;100213.28;;;7.52;100.00
55757;BME280;41676;44.610;44.078;2024-03-23T11:30:39;100222.34;;;7.50;100.00
55757;BME280;41676;44.610;44.078;2024-03-23T11:35:40;100220.47;;;7.42;100.00
55757;BME280;41676;44.610;44.078;2024-03-23T11:40:44;100235.06;;;7.64;100.00
55757;BME280;41676;44.610;44.078;2024-03-23T11:45:51;100226.06;;;7.75;100.00
55757;BME280;41676;44.610;44.078;2024-03-23T11:50:57;100231.97;;;7.69;100.00
55757;BME280;41676;44.610;44.078;2024-03-23T11:55:59;100232.28;;;7.92;100.00
55757;BME280;41676;44.610;44.078;2024-03-23T12:01:02;100189.88;;;7.75;100.00
55757;BME280;41676;44.610;44.078;2024-03-23T12:06:04;100244.66;;;8.09;100.00
55757;BME280;41676;44.610;44.078;2024-03-23T12:11:07;100208.66;;;7.90;100.00
55757;BME280;41676;44.610;44.078;2024-03-23T12:16:13;100197.59;;;7.95;100.00
55757;BME280;41676;44.610;44.078;2024-03-23T12:21:15;100225.31;;;8.09;100.00
55757;BME280;41676;44.610;44.078;2024-03-23T12:26:17;100210.53;;;7.98;100.00
55757;BME280;41676;44.610;44.078;2024-03-23T12:31:18;100224.84;;;8.13;100.00
55757;BME280;41676;44.610;44.078;2024-03-23T12:36:19;100217.53;;;8.07;99.81
55757;BME280;41676;44.610;44.078;2024-03-23T12:41:19;100225.59;;;8.23;100.00
55757;BME280;41676;44.610;44.078;2024-03-23T12:46:20;100227.63;;;8.30;99.56
55757;BME280;41676;44.610;44.078;2024-03-23T12:51:21;100221.56;;;8.19;99.12
55757;BME280;41676;44.610;44.078;2024-03-23T12:56:22;100224.13;;;8.29;98.85
55757;BME280;41676;44.610;44.078;2024-03-23T13:01:26;100218.03;;;8.37;97.81
55757;BME280;41676;44.610;44.078;2024-03-23T13:06:27;100234.41;;;8.32;98.28
55757;BME280;41676;44.610;44.078;2024-03-23T13:11:32;100227.25;;;8.24;98.05
55757;BME280;41676;44.610;44.078;2024-03-23T13:16:33;100212.59;;;8.12;96.97
55757;BME280;41676;44.610;44.078;2024-03-23T13:21:34;100225.44;;;7.99;97.75
55757;BME280;41676;44.610;44.078;2024-03-23T13:26:34;100222.47;;;8.02;98.30
55757;BME280;41676;44.610;44.078;2024-03-23T13:31:35;100222.81;;;8.07;99.32
55757;BME280;41676;44.610;44.078;2024-03-23T13:36:36;100181.09;;;7.93;98.82
55757;BME280;41676;44.610;44.078;2024-03-23T13:41:41;100225.22;;;8.18;98.19
55757;BME280;41676;44.610;44.078;2024-03-23T13:46:42;100216.84;;;8.31;98.35
55757;BME280;41676;44.610;44.078;2024-03-23T13:51:46;100212.47;;;8.40;97.65
55757;BME280;41676;44.610;44.078;2024-03-23T13:56:51;100229.34;;;8.39;97.49
55757;BME280;41676;44.610;44.078;2024-03-23T14:01:51;100236.97;;;8.42;96.50
55757;BME280;41676;44.610;44.078;2024-03-23T14:06:52;100185.50;;;7.92;97.83
55757;BME280;41676;44.610;44.078;2024-03-23T14:11:53;100245.94;;;8.23;98.29
55757;BME280;41676;44.610;44.078;2024-03-23T14:16:54;100242.09;;;8.17;98.03
55757;BME280;41676;44.610;44.078;2024-03-23T14:21:54;100247.78;;;8.31;97.32
55757;BME280;41676;44.610;44.078;2024-03-23T14:26:57;100244.50;;;8.29;96.38
55757;BME280;41676;44.610;44.078;2024-03-23T14:31:58;100228.59;;;8.03;96.38
55757;BME280;41676;44.610;44.078;2024-03-23T14:36:58;100198.19;;;7.63;97.14
55757;BME280;41676;44.610;44.078;2024-03-23T14:42:01;100224.78;;;7.61;98.03
55757;BME280;41676;44.610;44.078;2024-03-23T14:47:02;100163.84;;;7.09;98.82
55757;BME280;41676;44.610;44.078;2024-03-23T14:52:02;100220.91;;;7.20;99.32
55757;BME280;41676;44.610;44.078;2024-03-23T14:57:03;100224.81;;;6.98;100.00
55757;BME280;41676;44.610;44.078;2024-03-23T15:02:05;100230.44;;;6.85;100.00
55757;BME280;41676;44.610;44.078;2024-03-23T15:07:05;100227.44;;;6.70;100.00
55757;BME280;41676;44.610;44.078;2024-03-23T15:12:06;100225.16;;;6.48;100.00
55757;BME280;41676;44.610;44.078;2024-03-23T15:17:07;100183.50;;;6.04;100.00
55757;BME280;41676;44.610;44.078;2024-03-23T15:22:09;100248.41;;;6.25;100.00
55757;BME280;41676;44.610;44.078;2024-03-23T15:27:10;100249.00;;;6.09;100.00
55757;BME280;41676;44.610;44.078;2024-03-23T15:32:11;100270.66;;;6.03;100.00
55757;BME280;41676;44.610;44.078;2024-03-23T15:37:12;100245.25;;;5.82;100.00
55757;BME280;41676;44.610;44.078;2024-03-23T15:42:13;100275.66;;;5.86;100.00
55757;BME280;41676;44.610;44.078;2024-03-23T15:47:13;100282.75;;;5.96;100.00
55757;BME280;41676;44.610;44.078;2024-03-23T15:52:14;100239.44;;;5.69;100.00
55757;BME280;41676;44.610;44.078;2024-03-23T15:57:15;100218.63;;;5.56;100.00
55757;BME280;41676;44.610;44.078;2024-03-23T16:02:16;100296.63;;;6.07;100.00
55757;BME280;41676;44.610;44.078;2024-03-23T16:07:17;100306.19;;;6.18;100.00
55757;BME280;41676;44.610;44.078;2024-03-23T16:12:18;100290.50;;;6.16;100.00
55757;BME280;41676;44.610;44.078;2024-03-23T16:17:19;100297.97;;;6.21;100.00
55757;BME280;41676;44.610;44.078;2024-03-23T16:22:19;100259.41;;;5.91;100.00
55757;BME280;41676;44.610;44.078;2024-03-23T16:27:20;100310.88;;;6.24;100.00
55757;BME280;41676;44.610;44.078;2024-03-23T16:32:21;100318.81;;;6.24;100.00
55757;BME280;41676;44.610;44.078;2024-03-23T16:37:23;100334.78;;;6.13;100.00
55757;BME280;41676;44.610;44.078;2024-03-23T16:42:24;100340.16;;;5.92;100.00
55757;BME280;41676;44.610;44.078;2024-03-23T16:47:25;100347.06;;;5.73;100.00
55757;BME280;41676;44.610;44.078;2024-03-23T16:52:27;100335.53;;;5.45;100.00
55757;BME280;41676;44.610;44.078;2024-03-23T16:57:28;100344.25;;;5.56;100.00
55757;BME280;41676;44.610;44.078;2024-03-23T17:02:29;100346.19;;;5.44;100.00
55757;BME280;41676;44.610;44.078;2024-03-23T17:07:31;100349.41;;;5.17;100.00
55757;BME280;41676;44.610;44.078;2024-03-23T17:12:32;100364.22;;;5.08;100.00
55757;BME280;41676;44.610;44.078;2024-03-23T17:17:32;100320.66;;;4.64;100.00
55757;BME280;41676;44.610;44.078;2024-03-23T17:22:33;100374.41;;;4.92;100.00
55757;BME280;41676;44.610;44.078;2024-03-23T17:27:35;100365.53;;;4.93;100.00
55757;BME280;41676;44.610;44.078;2024-03-23T17:32:35;100375.66;;;4.88;100.00
55757;BME280;41676;44.610;44.078;2024-03-23T17:37:37;100375.72;;;4.76;100.00
55757;BME280;41676;44.610;44.078;2024-03-23T17:42:39;100375.25;;;4.71;100.00
55757;BME280;41676;44.610;44.078;2024-03-23T17:47:41;100366.66;;;4.69;100.00
55757;BME280;41676;44.610;44.078;2024-03-23T17:52:43;100360.69;;;4.67;100.00
55757;BME280;41676;44.610;44.078;2024-03-23T17:57:44;100310.06;;;4.33;100.00
55757;BME280;41676;44.610;44.078;2024-03-23T18:02:44;100349.97;;;4.59;100.00
55757;BME280;41676;44.610;44.078;2024-03-23T18:07:45;100348.63;;;4.65;100.00
55757;BME280;41676;44.610;44.078;2024-03-23T18:12:46;100324.81;;;4.45;100.00
55757;BME280;41676;44.610;44.078;2024-03-23T18:17:48;100360.75;;;4.56;100.00
55757;BME280;41676;44.610;44.078;2024-03-23T18:22:52;100353.44;;;4.60;100.00
55757;BME280;41676;44.610;44.078;2024-03-23T18:27:53;100359.34;;;4.73;100.00
55757;BME280;41676;44.610;44.078;2024-03-23T18:32:53;100324.50;;;4.60;100.00
55757;BME280;41676;44.610;44.078;2024-03-23T18:37:54;100368.44;;;4.90;100.00
55757;BME280;41676;44.610;44.078;2024-03-23T18:42:55;100363.09;;;5.01;100.00
55757;BME280;41676;44.610;44.078;2024-03-23T18:47:56;100364.06;;;5.00;100.00
55757;BME280;41676;44.610;44.078;2024-03-23T18:52:57;100340.44;;;4.89;100.00
55757;BME280;41676;44.610;44.078;2024-03-23T18:57:58;100356.72;;;5.03;100.00
55757;BME280;41676;44.610;44.078;2024-03-23T19:02:59;100315.25;;;4.65;100.00
55757;BME280;41676;44.610;44.078;2024-03-23T19:08:00;100383.16;;;5.02;100.00
55757;BME280;41676;44.610;44.078;2024-03-23T19:13:01;100341.25;;;4.79;100.00
55757;BME280;41676;44.610;44.078;2024-03-23T19:18:03;100383.06;;;5.03;100.00
55757;BME280;41676;44.610;44.078;2024-03-23T19:23:04;100339.81;;;4.75;100.00
55757;BME280;41676;44.610;44.078;2024-03-23T19:28:05;100359.88;;;4.97;100.00
55757;BME280;41676;44.610;44.078;2024-03-23T19:33:06;100370.34;;;5.09;100.00
55757;BME280;41676;44.610;44.078;2024-03-23T19:38:07;100377.81;;;5.13;100.00
55757;BME280;41676;44.610;44.078;2024-03-23T19:43:08;100314.94;;;4.89;100.00
55757;BME280;41676;44.610;44.078;2024-03-23T19:48:09;100361.38;;;5.21;100.00
55757;BME280;41676;44.610;44.078;2024-03-23T19:53:10;100368.41;;;5.20;100.00
55757;BME280;41676;44.610;44.078;2024-03-23T19:58:10;100381.19;;;5.25;100.00
55757;BME280;41676;44.610;44.078;2024-03-23T20:03:11;100392.00;;;5.22;100.00
55757;BME280;41676;44.610;44.078;2024-03-23T20:08:12;100384.00;;;5.23;100.00
55757;BME280;41676;44.610;44.078;2024-03-23T20:13:13;100374.44;;;5.32;100.00
55757;BME280;41676;44.610;44.078;2024-03-23T20:18:13;100314.19;;;5.08;100.00
55757;BME280;41676;44.610;44.078;2024-03-23T20:23:14;100363.78;;;5.43;100.00
55757;BME280;41676;44.610;44.078;2024-03-23T20:28:15;100358.25;;;5.46;100.00
55757;BME280;41676;44.610;44.078;2024-03-23T20:33:16;100356.56;;;5.36;100.00
55757;BME280;41676;44.610;44.078;2024-03-23T20:38:17;100344.72;;;5.20;100.00
55757;BME280;41676;44.610;44.078;2024-03-23T20:43:18;100332.94;;;5.15;100.00
55757;BME280;41676;44.610;44.078;2024-03-23T20:48:19;100345.66;;;5.10;100.00
55757;BME280;41676;44.610;44.078;2024-03-23T20:53:20;100369.41;;;5.19;100.00
55757;BME280;41676;44.610;44.078;2024-03-23T20:58:21;100351.25;;;5.26;100.00
55757;BME280;41676;44.610;44.078;2024-03-23T21:03:22;100361.53;;;5.29;100.00
55757;BME280;41676;44.610;44.078;2024-03-23T21:08:23;100344.78;;;5.30;100.00
55757;BME280;41676;44.610;44.078;2024-03-23T21:13:24;100350.03;;;5.30;100.00
55757;BME280;41676;44.610;44.078;2024-03-23T21:18:28;100310.44;;;5.01;100.00
55757;BME280;41676;44.610;44.078;2024-03-23T21:23:30;100350.03;;;5.30;100.00
55757;BME280;41676;44.610;44.078;2024-03-23T21:28:35;100299.06;;;5.00;100.00
55757;BME280;41676;44.610;44.078;2024-03-23T21:33:35;100345.03;;;5.27;100.00
55757;BME280;41676;44.610;44.078;2024-03-23T21:38:36;100340.13;;;5.13;100.00
55757;BME280;41676;44.610;44.078;2024-03-23T21:43:37;100364.69;;;5.23;100.00
55757;BME280;41676;44.610;44.078;2024-03-23T21:48:38;100276.28;;;4.80;100.00
55757;BME280;41676;44.610;44.078;2024-03-23T21:53:38;100352.69;;;5.30;100.00
55757;BME280;41676;44.610;44.078;2024-03-23T21:58:39;100349.88;;;5.32;100.00
55757;BME280;41676;44.610;44.078;2024-03-23T22:03:40;100309.91;;;5.17;100.00
55757;BME280;41676;44.610;44.078;2024-03-23T22:08:40;100241.50;;;4.76;100.00
55757;BME280;41676;44.610;44.078;2024-03-23T22:13:41;100331.97;;;5.16;100.00
55757;BME280;41676;44.610;44.078;2024-03-23T22:18:43;100329.44;;;5.14;100.00
55757;BME280;41676;44.610;44.078;2024-03-23T22:23:43;100333.06;;;5.13;100.00
55757;BME280;41676;44.610;44.078;2024-03-23T22:28:47;100267.84;;;4.86;100.00
55757;BME280;41676;44.610;44.078;2024-03-23T22:33:48;100318.50;;;5.09;100.00
55757;BME280;41676;44.610;44.078;2024-03-23T22:38:49;100314.06;;;5.10;100.00
55757;BME280;41676;44.610;44.078;2024-03-23T22:43:50;100301.69;;;5.00;100.00
55757;BME280;41676;44.610;44.078;2024-03-23T22:48:51;100256.47;;;4.76;100.00
55757;BME280;41676;44.610;44.078;2024-03-23T22:53:52;100268.22;;;4.81;100.00
55757;BME280;41676;44.610;44.078;2024-03-23T22:58:52;100264.09;;;4.79;100.00
55757;BME280;41676;44.610;44.078;2024-03-23T23:03:53;100280.47;;;4.92;100.00
55757;BME280;41676;44.610;44.078;2024-03-23T23:08:55;100291.72;;;4.94;100.00
55757;BME280;41676;44.610;44.078;2024-03-23T23:13:55;100315.59;;;5.12;100.00
55757;BME280;41676;44.610;44.078;2024-03-23T23:18:56;100287.84;;;4.98;100.00
55757;BME280;41676;44.610;44.078;2024-03-23T23:23:57;100303.97;;;5.15;100.00
55757;BME280;41676;44.610;44.078;2024-03-23T23:28:59;100323.16;;;5.26;100.00
55757;BME280;41676;44.610;44.078;2024-03-23T23:34:00;100313.53;;;5.16;100.00
55757;BME280;41676;44.610;44.078;2024-03-23T23:39:01;100321.88;;;5.21;100.00
55757;BME280;41676;44.610;44.078;2024-03-23T23:44:02;100317.97;;;5.15;100.00
55757;BME280;41676;44.610;44.078;2024-03-23T23:49:04;100265.66;;;4.91;100.00
55757;BME280;41676;44.610;44.078;2024-03-23T23:54:05;100322.88;;;5.30;100.00
55757;BME280;41676;44.610;44.078;2024-03-23T23:59:06;100323.44;;;5.33;100.00
